Weather at Maarud

Public forecast

Using degrees Celsius for public forecast. Weather courtesy of forecast.io.

Closest aviation weather report (METAR) to Maarud

Closest report is Oslo Gardermoen Airport, 13.9 nm (25.7 km) W. Retrieved 2020/11/25 13:20 UTC (0 seconds ago):

ENGM 251320Z 19012KT 9999 FEW013 BKN014 09/07 Q1003 TEMPO BKN016

Closest aviation forecast (TAF) to Maarud

Closest forecast is Oslo Gardermoen Airport, 13.9 nm (25.7 km) W. Retrieved 2020/11/25 12:57 UTC (5 minutes ago):

TAF ENGM 251100Z 2512/2612 19010KT 9999 OVC015 TEMPO 2512/2516 OVC010 BECMG 2517/2519 28006KT